Terminal Aerodrome Forecast
Issued by NWS

Home | Current Version | Previous Version | Text Only | Print | Product List | Glossary On
Versions: 1 2 3 4 5 6 7 8 9 10 11 12 13 14 15 16 17 18 19
000
FTUS45 KABQ 050500 CCA
TAFTCC
TAF COR
KTCC 050549Z 0506/0606 15009KT P6SM VCSH SCT035 BKN100
      TEMPO 0506/0509 VRB15G25KT 6SM -TSRA SCT020 BKN035CB
     FM050900 23009KT P6SM VCSH SCT020 BKN100
     FM051800 20013G23KT P6SM VCSH SCT040 BKN100
     FM060200 20010KT P6SM BKN100=

USA.gov is the U.S. government's official web portal to all federal, state and local government web resources and services.